sensor_id;sensor_type;location;lat;lon;timestamp;P1;durP1;ratioP1;P2;durP2;ratioP2
27495;SDS011;14929;51.336;9.416;2024-01-07T00:00:26;18.73;;;15.30;;
27495;SDS011;14929;51.336;9.416;2024-01-07T00:02:55;9.57;;;7.75;;
27495;SDS011;14929;51.336;9.416;2024-01-07T00:05:22;9.57;;;6.85;;
27495;SDS011;14929;51.336;9.416;2024-01-07T00:07:50;9.15;;;7.72;;
27495;SDS011;14929;51.336;9.416;2024-01-07T00:10:18;8.82;;;6.28;;
27495;SDS011;14929;51.336;9.416;2024-01-07T00:12:46;7.15;;;6.38;;
27495;SDS011;14929;51.336;9.416;2024-01-07T00:15:15;9.60;;;6.13;;
27495;SDS011;14929;51.336;9.416;2024-01-07T00:17:43;8.35;;;7.18;;
27495;SDS011;14929;51.336;9.416;2024-01-07T00:20:10;7.95;;;6.28;;
27495;SDS011;14929;51.336;9.416;2024-01-07T00:22:38;6.70;;;5.95;;
27495;SDS011;14929;51.336;9.416;2024-01-07T00:25:06;7.50;;;6.78;;
27495;SDS011;14929;51.336;9.416;2024-01-07T00:27:35;6.88;;;6.03;;
27495;SDS011;14929;51.336;9.416;2024-01-07T00:30:03;7.18;;;6.25;;
27495;SDS011;14929;51.336;9.416;2024-01-07T00:32:31;6.82;;;6.05;;
27495;SDS011;14929;51.336;9.416;2024-01-07T00:34:59;9.07;;;7.13;;
27495;SDS011;14929;51.336;9.416;2024-01-07T00:37:26;10.25;;;8.00;;
27495;SDS011;14929;51.336;9.416;2024-01-07T00:39:54;8.63;;;6.50;;
27495;SDS011;14929;51.336;9.416;2024-01-07T00:42:21;9.73;;;6.75;;
27495;SDS011;14929;51.336;9.416;2024-01-07T00:44:50;8.05;;;6.15;;
27495;SDS011;14929;51.336;9.416;2024-01-07T00:47:18;5.18;;;4.68;;
27495;SDS011;14929;51.336;9.416;2024-01-07T00:49:45;8.63;;;6.88;;
27495;SDS011;14929;51.336;9.416;2024-01-07T00:52:13;6.40;;;5.07;;
27495;SDS011;14929;51.336;9.416;2024-01-07T00:54:40;6.68;;;5.97;;
27495;SDS011;14929;51.336;9.416;2024-01-07T00:57:09;7.25;;;5.30;;
27495;SDS011;14929;51.336;9.416;2024-01-07T00:59:37;8.13;;;6.88;;
27495;SDS011;14929;51.336;9.416;2024-01-07T01:02:06;6.82;;;6.22;;
27495;SDS011;14929;51.336;9.416;2024-01-07T01:04:33;8.45;;;5.88;;
27495;SDS011;14929;51.336;9.416;2024-01-07T01:07:04;6.78;;;6.10;;
27495;SDS011;14929;51.336;9.416;2024-01-07T01:09:32;7.85;;;6.43;;
27495;SDS011;14929;51.336;9.416;2024-01-07T01:12:00;6.82;;;5.68;;
27495;SDS011;14929;51.336;9.416;2024-01-07T01:14:27;6.18;;;5.15;;
27495;SDS011;14929;51.336;9.416;2024-01-07T01:16:55;5.95;;;5.38;;
27495;SDS011;14929;51.336;9.416;2024-01-07T01:19:23;7.13;;;6.40;;
27495;SDS011;14929;51.336;9.416;2024-01-07T01:21:51;5.13;;;4.55;;
27495;SDS011;14929;51.336;9.416;2024-01-07T01:24:19;7.35;;;6.15;;
27495;SDS011;14929;51.336;9.416;2024-01-07T01:26:46;5.78;;;5.28;;
27495;SDS011;14929;51.336;9.416;2024-01-07T01:29:14;7.50;;;6.57;;
27495;SDS011;14929;51.336;9.416;2024-01-07T01:31:41;8.63;;;7.13;;
27495;SDS011;14929;51.336;9.416;2024-01-07T01:34:09;10.18;;;7.70;;
27495;SDS011;14929;51.336;9.416;2024-01-07T01:36:37;8.85;;;7.25;;
27495;SDS011;14929;51.336;9.416;2024-01-07T01:39:05;8.27;;;5.93;;
27495;SDS011;14929;51.336;9.416;2024-01-07T01:41:33;6.85;;;5.93;;
27495;SDS011;14929;51.336;9.416;2024-01-07T01:44:00;7.53;;;5.68;;
27495;SDS011;14929;51.336;9.416;2024-01-07T01:46:28;7.32;;;6.43;;
27495;SDS011;14929;51.336;9.416;2024-01-07T01:48:56;8.95;;;6.65;;
27495;SDS011;14929;51.336;9.416;2024-01-07T01:51:24;9.48;;;7.78;;
27495;SDS011;14929;51.336;9.416;2024-01-07T01:53:53;9.18;;;7.03;;
27495;SDS011;14929;51.336;9.416;2024-01-07T01:56:22;9.75;;;8.13;;
27495;SDS011;14929;51.336;9.416;2024-01-07T01:58:51;8.65;;;6.95;;
27495;SDS011;14929;51.336;9.416;2024-01-07T02:01:19;7.80;;;6.75;;
27495;SDS011;14929;51.336;9.416;2024-01-07T02:03:47;8.70;;;7.85;;
27495;SDS011;14929;51.336;9.416;2024-01-07T02:06:16;9.13;;;7.57;;
27495;SDS011;14929;51.336;9.416;2024-01-07T02:08:44;8.27;;;7.32;;
27495;SDS011;14929;51.336;9.416;2024-01-07T02:11:19;8.45;;;7.00;;
27495;SDS011;14929;51.336;9.416;2024-01-07T02:13:48;8.35;;;6.30;;
27495;SDS011;14929;51.336;9.416;2024-01-07T02:16:15;7.25;;;6.32;;
27495;SDS011;14929;51.336;9.416;2024-01-07T02:18:44;9.32;;;7.60;;
27495;SDS011;14929;51.336;9.416;2024-01-07T02:21:13;9.50;;;7.22;;
27495;SDS011;14929;51.336;9.416;2024-01-07T02:23:41;9.30;;;7.07;;
27495;SDS011;14929;51.336;9.416;2024-01-07T02:26:10;11.27;;;8.63;;
27495;SDS011;14929;51.336;9.416;2024-01-07T02:28:37;9.23;;;7.63;;
27495;SDS011;14929;51.336;9.416;2024-01-07T02:31:04;13.63;;;9.57;;
27495;SDS011;14929;51.336;9.416;2024-01-07T02:33:32;7.07;;;6.22;;
27495;SDS011;14929;51.336;9.416;2024-01-07T02:35:59;8.60;;;6.28;;
27495;SDS011;14929;51.336;9.416;2024-01-07T02:38:27;11.02;;;9.27;;
27495;SDS011;14929;51.336;9.416;2024-01-07T02:40:54;7.18;;;6.35;;
27495;SDS011;14929;51.336;9.416;2024-01-07T02:43:23;10.50;;;8.30;;
27495;SDS011;14929;51.336;9.416;2024-01-07T02:45:50;9.65;;;7.50;;
27495;SDS011;14929;51.336;9.416;2024-01-07T02:48:18;7.60;;;6.80;;
27495;SDS011;14929;51.336;9.416;2024-01-07T02:50:45;7.47;;;6.20;;
27495;SDS011;14929;51.336;9.416;2024-01-07T02:53:13;13.02;;;10.23;;
27495;SDS011;14929;51.336;9.416;2024-01-07T02:55:40;9.73;;;7.53;;
27495;SDS011;14929;51.336;9.416;2024-01-07T02:58:08;10.70;;;9.10;;
27495;SDS011;14929;51.336;9.416;2024-01-07T03:00:36;13.35;;;10.23;;
27495;SDS011;14929;51.336;9.416;2024-01-07T03:03:04;12.15;;;10.05;;
27495;SDS011;14929;51.336;9.416;2024-01-07T03:05:31;12.55;;;10.25;;
27495;SDS011;14929;51.336;9.416;2024-01-07T03:07:59;11.20;;;9.07;;
27495;SDS011;14929;51.336;9.416;2024-01-07T03:10:27;10.15;;;8.25;;
27495;SDS011;14929;51.336;9.416;2024-01-07T03:12:54;15.25;;;9.80;;
27495;SDS011;14929;51.336;9.416;2024-01-07T03:15:22;13.02;;;10.55;;
27495;SDS011;14929;51.336;9.416;2024-01-07T03:17:51;11.07;;;8.38;;
27495;SDS011;14929;51.336;9.416;2024-01-07T03:20:18;10.98;;;8.38;;
27495;SDS011;14929;51.336;9.416;2024-01-07T03:22:45;9.65;;;8.70;;
27495;SDS011;14929;51.336;9.416;2024-01-07T03:25:13;12.18;;;8.95;;
27495;SDS011;14929;51.336;9.416;2024-01-07T03:27:41;8.23;;;6.97;;
27495;SDS011;14929;51.336;9.416;2024-01-07T03:30:09;10.98;;;8.93;;
27495;SDS011;14929;51.336;9.416;2024-01-07T03:32:37;13.75;;;10.40;;
27495;SDS011;14929;51.336;9.416;2024-01-07T03:35:06;15.63;;;10.93;;
27495;SDS011;14929;51.336;9.416;2024-01-07T03:37:34;12.98;;;10.43;;
27495;SDS011;14929;51.336;9.416;2024-01-07T03:40:02;15.23;;;9.90;;
27495;SDS011;14929;51.336;9.416;2024-01-07T03:42:35;12.60;;;9.40;;
27495;SDS011;14929;51.336;9.416;2024-01-07T03:45:03;10.00;;;6.82;;
27495;SDS011;14929;51.336;9.416;2024-01-07T03:47:31;13.63;;;10.73;;
27495;SDS011;14929;51.336;9.416;2024-01-07T03:49:58;10.75;;;7.93;;
27495;SDS011;14929;51.336;9.416;2024-01-07T03:52:27;10.13;;;8.00;;
27495;SDS011;14929;51.336;9.416;2024-01-07T03:54:54;8.77;;;7.40;;
27495;SDS011;14929;51.336;9.416;2024-01-07T03:57:22;15.23;;;10.35;;
27495;SDS011;14929;51.336;9.416;2024-01-07T03:59:50;12.77;;;10.15;;
27495;SDS011;14929;51.336;9.416;2024-01-07T04:02:17;13.93;;;10.70;;
27495;SDS011;14929;51.336;9.416;2024-01-07T04:04:44;9.63;;;7.90;;
27495;SDS011;14929;51.336;9.416;2024-01-07T04:07:12;13.20;;;8.88;;
27495;SDS011;14929;51.336;9.416;2024-01-07T04:09:42;14.95;;;10.75;;
27495;SDS011;14929;51.336;9.416;2024-01-07T04:12:10;12.60;;;9.55;;
27495;SDS011;14929;51.336;9.416;2024-01-07T04:14:38;9.45;;;8.48;;
27495;SDS011;14929;51.336;9.416;2024-01-07T04:17:05;13.95;;;10.45;;
27495;SDS011;14929;51.336;9.416;2024-01-07T04:19:33;12.40;;;9.30;;
27495;SDS011;14929;51.336;9.416;2024-01-07T04:22:02;12.38;;;8.40;;
27495;SDS011;14929;51.336;9.416;2024-01-07T04:24:30;9.18;;;7.30;;
27495;SDS011;14929;51.336;9.416;2024-01-07T04:26:59;16.10;;;11.18;;
27495;SDS011;14929;51.336;9.416;2024-01-07T04:29:26;14.98;;;11.63;;
27495;SDS011;14929;51.336;9.416;2024-01-07T04:31:53;15.48;;;11.75;;
27495;SDS011;14929;51.336;9.416;2024-01-07T04:34:21;17.40;;;13.15;;
27495;SDS011;14929;51.336;9.416;2024-01-07T04:36:49;16.92;;;12.63;;
27495;SDS011;14929;51.336;9.416;2024-01-07T04:39:17;13.50;;;10.73;;
27495;SDS011;14929;51.336;9.416;2024-01-07T04:41:44;13.77;;;10.80;;
27495;SDS011;14929;51.336;9.416;2024-01-07T04:44:13;13.68;;;10.10;;
27495;SDS011;14929;51.336;9.416;2024-01-07T04:46:40;15.05;;;11.63;;
27495;SDS011;14929;51.336;9.416;2024-01-07T04:49:08;11.38;;;10.00;;
27495;SDS011;14929;51.336;9.416;2024-01-07T04:51:35;11.52;;;9.82;;
27495;SDS011;14929;51.336;9.416;2024-01-07T04:54:03;13.32;;;9.80;;
27495;SDS011;14929;51.336;9.416;2024-01-07T04:56:30;11.73;;;8.70;;
27495;SDS011;14929;51.336;9.416;2024-01-07T04:58:58;9.05;;;8.02;;
27495;SDS011;14929;51.336;9.416;2024-01-07T05:01:27;9.68;;;8.68;;
27495;SDS011;14929;51.336;9.416;2024-01-07T05:03:54;8.70;;;7.60;;
27495;SDS011;14929;51.336;9.416;2024-01-07T05:06:22;10.07;;;9.02;;
27495;SDS011;14929;51.336;9.416;2024-01-07T05:08:49;8.60;;;6.97;;
27495;SDS011;14929;51.336;9.416;2024-01-07T05:11:17;9.27;;;7.45;;
27495;SDS011;14929;51.336;9.416;2024-01-07T05:13:44;11.32;;;8.48;;
27495;SDS011;14929;51.336;9.416;2024-01-07T05:16:17;7.43;;;6.60;;
27495;SDS011;14929;51.336;9.416;2024-01-07T05:18:46;8.45;;;6.38;;
27495;SDS011;14929;51.336;9.416;2024-01-07T05:21:14;8.45;;;7.55;;
27495;SDS011;14929;51.336;9.416;2024-01-07T05:23:42;7.45;;;6.22;;
27495;SDS011;14929;51.336;9.416;2024-01-07T05:26:09;6.47;;;5.88;;
27495;SDS011;14929;51.336;9.416;2024-01-07T05:28:36;8.38;;;7.10;;
27495;SDS011;14929;51.336;9.416;2024-01-07T05:31:04;7.05;;;5.80;;
27495;SDS011;14929;51.336;9.416;2024-01-07T05:33:31;7.15;;;6.18;;
27495;SDS011;14929;51.336;9.416;2024-01-07T05:36:00;7.25;;;6.22;;
27495;SDS011;14929;51.336;9.416;2024-01-07T05:38:28;8.55;;;7.00;;
27495;SDS011;14929;51.336;9.416;2024-01-07T05:40:55;5.72;;;5.10;;
27495;SDS011;14929;51.336;9.416;2024-01-07T05:43:22;7.72;;;6.70;;
27495;SDS011;14929;51.336;9.416;2024-01-07T05:45:50;7.13;;;5.40;;
27495;SDS011;14929;51.336;9.416;2024-01-07T05:48:18;7.03;;;6.22;;
27495;SDS011;14929;51.336;9.416;2024-01-07T05:50:47;5.55;;;5.05;;
27495;SDS011;14929;51.336;9.416;2024-01-07T05:53:16;6.35;;;5.75;;
27495;SDS011;14929;51.336;9.416;2024-01-07T05:55:44;6.70;;;5.35;;
27495;SDS011;14929;51.336;9.416;2024-01-07T05:58:11;6.75;;;6.03;;
27495;SDS011;14929;51.336;9.416;2024-01-07T06:00:39;6.25;;;5.65;;
27495;SDS011;14929;51.336;9.416;2024-01-07T06:03:06;5.47;;;4.90;;
27495;SDS011;14929;51.336;9.416;2024-01-07T06:05:37;6.68;;;5.80;;
27495;SDS011;14929;51.336;9.416;2024-01-07T06:08:05;6.55;;;5.90;;
27495;SDS011;14929;51.336;9.416;2024-01-07T06:10:35;6.05;;;5.53;;
27495;SDS011;14929;51.336;9.416;2024-01-07T06:13:02;8.15;;;6.63;;
27495;SDS011;14929;51.336;9.416;2024-01-07T06:15:30;6.15;;;5.55;;
27495;SDS011;14929;51.336;9.416;2024-01-07T06:17:57;6.18;;;5.57;;
27495;SDS011;14929;51.336;9.416;2024-01-07T06:20:25;9.27;;;6.00;;
27495;SDS011;14929;51.336;9.416;2024-01-07T06:22:53;6.95;;;6.07;;
27495;SDS011;14929;51.336;9.416;2024-01-07T06:25:20;4.15;;;3.67;;
27495;SDS011;14929;51.336;9.416;2024-01-07T06:27:49;4.90;;;4.35;;
27495;SDS011;14929;51.336;9.416;2024-01-07T06:30:16;5.82;;;5.10;;
27495;SDS011;14929;51.336;9.416;2024-01-07T06:32:45;6.68;;;5.05;;
27495;SDS011;14929;51.336;9.416;2024-01-07T06:35:13;5.15;;;4.65;;
27495;SDS011;14929;51.336;9.416;2024-01-07T06:37:41;4.75;;;4.35;;
27495;SDS011;14929;51.336;9.416;2024-01-07T06:40:09;5.55;;;5.05;;
27495;SDS011;14929;51.336;9.416;2024-01-07T06:42:37;6.70;;;5.88;;
27495;SDS011;14929;51.336;9.416;2024-01-07T06:45:08;8.05;;;6.15;;
27495;SDS011;14929;51.336;9.416;2024-01-07T06:47:36;5.47;;;4.60;;
27495;SDS011;14929;51.336;9.416;2024-01-07T06:50:03;4.80;;;4.40;;
27495;SDS011;14929;51.336;9.416;2024-01-07T06:52:32;5.72;;;4.80;;
27495;SDS011;14929;51.336;9.416;2024-01-07T06:54:59;5.97;;;5.35;;
27495;SDS011;14929;51.336;9.416;2024-01-07T06:57:27;5.82;;;5.28;;
27495;SDS011;14929;51.336;9.416;2024-01-07T06:59:54;5.00;;;4.55;;
27495;SDS011;14929;51.336;9.416;2024-01-07T07:02:23;6.55;;;5.60;;
27495;SDS011;14929;51.336;9.416;2024-01-07T07:04:50;5.53;;;4.65;;
27495;SDS011;14929;51.336;9.416;2024-01-07T07:07:18;4.72;;;4.13;;
27495;SDS011;14929;51.336;9.416;2024-01-07T07:09:45;6.07;;;5.47;;
27495;SDS011;14929;51.336;9.416;2024-01-07T07:12:13;5.13;;;4.40;;
27495;SDS011;14929;51.336;9.416;2024-01-07T07:14:40;6.85;;;3.85;;
27495;SDS011;14929;51.336;9.416;2024-01-07T07:17:07;4.25;;;3.70;;
27495;SDS011;14929;51.336;9.416;2024-01-07T07:19:36;4.18;;;3.88;;
27495;SDS011;14929;51.336;9.416;2024-01-07T07:22:04;5.20;;;4.70;;
27495;SDS011;14929;51.336;9.416;2024-01-07T07:24:31;4.15;;;3.40;;
27495;SDS011;14929;51.336;9.416;2024-01-07T07:26:59;5.10;;;4.60;;
27495;SDS011;14929;51.336;9.416;2024-01-07T07:29:26;4.22;;;3.60;;
27495;SDS011;14929;51.336;9.416;2024-01-07T07:31:54;4.20;;;3.78;;
27495;SDS011;14929;51.336;9.416;2024-01-07T07:34:21;5.43;;;4.63;;
27495;SDS011;14929;51.336;9.416;2024-01-07T07:36:50;6.85;;;5.53;;
27495;SDS011;14929;51.336;9.416;2024-01-07T07:39:17;5.93;;;5.07;;
27495;SDS011;14929;51.336;9.416;2024-01-07T07:41:45;6.22;;;4.68;;
27495;SDS011;14929;51.336;9.416;2024-01-07T07:44:13;5.68;;;5.13;;
27495;SDS011;14929;51.336;9.416;2024-01-07T07:46:41;5.13;;;4.60;;
27495;SDS011;14929;51.336;9.416;2024-01-07T07:49:08;4.30;;;3.92;;
27495;SDS011;14929;51.336;9.416;2024-01-07T07:51:36;5.38;;;4.88;;
27495;SDS011;14929;51.336;9.416;2024-01-07T07:54:05;4.38;;;3.67;;
27495;SDS011;14929;51.336;9.416;2024-01-07T07:56:33;3.92;;;3.60;;
27495;SDS011;14929;51.336;9.416;2024-01-07T07:59:01;4.80;;;4.30;;
27495;SDS011;14929;51.336;9.416;2024-01-07T08:01:28;5.18;;;4.22;;
27495;SDS011;14929;51.336;9.416;2024-01-07T08:03:56;5.43;;;4.93;;
27495;SDS011;14929;51.336;9.416;2024-01-07T08:06:23;4.82;;;4.05;;
27495;SDS011;14929;51.336;9.416;2024-01-07T08:08:51;4.43;;;3.88;;
27495;SDS011;14929;51.336;9.416;2024-01-07T08:11:19;5.10;;;4.70;;
27495;SDS011;14929;51.336;9.416;2024-01-07T08:13:47;5.60;;;5.10;;
27495;SDS011;14929;51.336;9.416;2024-01-07T08:16:14;7.35;;;5.10;;
27495;SDS011;14929;51.336;9.416;2024-01-07T08:18:42;6.68;;;6.00;;
27495;SDS011;14929;51.336;9.416;2024-01-07T08:21:09;6.55;;;5.93;;
27495;SDS011;14929;51.336;9.416;2024-01-07T08:23:37;5.30;;;4.78;;
27495;SDS011;14929;51.336;9.416;2024-01-07T08:26:04;8.02;;;6.88;;
27495;SDS011;14929;51.336;9.416;2024-01-07T08:28:33;6.80;;;6.20;;
27495;SDS011;14929;51.336;9.416;2024-01-07T08:31:00;5.57;;;5.07;;
27495;SDS011;14929;51.336;9.416;2024-01-07T08:33:28;7.00;;;5.75;;
27495;SDS011;14929;51.336;9.416;2024-01-07T08:35:58;6.40;;;5.80;;
27495;SDS011;14929;51.336;9.416;2024-01-07T08:38:25;8.60;;;7.75;;
27495;SDS011;14929;51.336;9.416;2024-01-07T08:40:53;6.80;;;6.13;;
27495;SDS011;14929;51.336;9.416;2024-01-07T08:43:20;9.65;;;6.63;;
27495;SDS011;14929;51.336;9.416;2024-01-07T08:45:49;7.53;;;6.80;;
27495;SDS011;14929;51.336;9.416;2024-01-07T08:48:16;6.65;;;5.68;;
27495;SDS011;14929;51.336;9.416;2024-01-07T08:50:44;5.97;;;5.38;;
27495;SDS011;14929;51.336;9.416;2024-01-07T08:53:12;6.15;;;5.55;;
27495;SDS011;14929;51.336;9.416;2024-01-07T08:55:39;6.30;;;5.68;;
27495;SDS011;14929;51.336;9.416;2024-01-07T08:58:07;7.32;;;6.30;;
27495;SDS011;14929;51.336;9.416;2024-01-07T09:00:34;6.93;;;5.85;;
27495;SDS011;14929;51.336;9.416;2024-01-07T09:03:03;8.50;;;6.18;;
27495;SDS011;14929;51.336;9.416;2024-01-07T09:05:31;6.70;;;5.72;;
27495;SDS011;14929;51.336;9.416;2024-01-07T09:07:59;8.00;;;5.82;;
27495;SDS011;14929;51.336;9.416;2024-01-07T09:10:27;7.32;;;6.25;;
27495;SDS011;14929;51.336;9.416;2024-01-07T09:12:54;8.35;;;5.18;;
27495;SDS011;14929;51.336;9.416;2024-01-07T09:15:22;5.43;;;4.90;;
27495;SDS011;14929;51.336;9.416;2024-01-07T09:17:49;6.53;;;5.47;;
27495;SDS011;14929;51.336;9.416;2024-01-07T09:20:18;8.10;;;5.32;;
27495;SDS011;14929;51.336;9.416;2024-01-07T09:22:46;4.28;;;3.88;;
27495;SDS011;14929;51.336;9.416;2024-01-07T09:25:13;4.50;;;3.80;;
27495;SDS011;14929;51.336;9.416;2024-01-07T09:27:41;4.65;;;3.78;;
27495;SDS011;14929;51.336;9.416;2024-01-07T09:30:09;4.00;;;3.50;;
27495;SDS011;14929;51.336;9.416;2024-01-07T09:32:39;5.80;;;3.50;;
27495;SDS011;14929;51.336;9.416;2024-01-07T09:35:07;4.32;;;3.33;;
27495;SDS011;14929;51.336;9.416;2024-01-07T09:37:36;5.68;;;3.65;;
27495;SDS011;14929;51.336;9.416;2024-01-07T09:40:04;4.68;;;3.78;;
27495;SDS011;14929;51.336;9.416;2024-01-07T09:42:33;4.45;;;3.80;;
27495;SDS011;14929;51.336;9.416;2024-01-07T09:45:01;4.30;;;3.90;;
27495;SDS011;14929;51.336;9.416;2024-01-07T09:47:30;5.18;;;3.35;;
27495;SDS011;14929;51.336;9.416;2024-01-07T09:49:57;3.13;;;2.85;;
27495;SDS011;14929;51.336;9.416;2024-01-07T09:52:25;4.72;;;4.25;;
27495;SDS011;14929;51.336;9.416;2024-01-07T09:54:55;4.28;;;3.92;;
27495;SDS011;14929;51.336;9.416;2024-01-07T09:57:27;5.55;;;4.50;;
27495;SDS011;14929;51.336;9.416;2024-01-07T09:59:54;2.67;;;2.47;;
27495;SDS011;14929;51.336;9.416;2024-01-07T10:02:21;3.97;;;3.60;;
27495;SDS011;14929;51.336;9.416;2024-01-07T10:04:49;5.40;;;3.97;;
27495;SDS011;14929;51.336;9.416;2024-01-07T10:07:16;5.22;;;3.15;;
27495;SDS011;14929;51.336;9.416;2024-01-07T10:09:44;3.53;;;2.80;;
27495;SDS011;14929;51.336;9.416;2024-01-07T10:12:13;6.38;;;3.40;;
27495;SDS011;14929;51.336;9.416;2024-01-07T10:14:41;2.72;;;2.50;;
27495;SDS011;14929;51.336;9.416;2024-01-07T10:17:13;2.78;;;2.50;;
27495;SDS011;14929;51.336;9.416;2024-01-07T10:19:43;2.75;;;2.55;;
27495;SDS011;14929;51.336;9.416;2024-01-07T10:22:12;3.22;;;2.67;;
27495;SDS011;14929;51.336;9.416;2024-01-07T10:24:41;4.70;;;3.55;;
27495;SDS011;14929;51.336;9.416;2024-01-07T10:27:09;4.80;;;3.22;;
27495;SDS011;14929;51.336;9.416;2024-01-07T10:29:39;3.17;;;2.88;;
27495;SDS011;14929;51.336;9.416;2024-01-07T10:32:07;3.92;;;3.60;;
27495;SDS011;14929;51.336;9.416;2024-01-07T10:34:35;3.72;;;3.38;;
27495;SDS011;14929;51.336;9.416;2024-01-07T10:37:03;2.83;;;2.63;;
27495;SDS011;14929;51.336;9.416;2024-01-07T10:39:31;2.63;;;2.42;;
27495;SDS011;14929;51.336;9.416;2024-01-07T10:41:59;2.30;;;2.20;;
27495;SDS011;14929;51.336;9.416;2024-01-07T10:44:28;2.95;;;2.72;;
27495;SDS011;14929;51.336;9.416;2024-01-07T10:46:58;2.95;;;2.72;;
27495;SDS011;14929;51.336;9.416;2024-01-07T10:49:27;4.03;;;2.67;;
27495;SDS011;14929;51.336;9.416;2024-01-07T10:52:01;2.83;;;2.63;;
27495;SDS011;14929;51.336;9.416;2024-01-07T10:54:31;2.22;;;2.03;;
27495;SDS011;14929;51.336;9.416;2024-01-07T10:57:01;2.00;;;1.90;;
27495;SDS011;14929;51.336;9.416;2024-01-07T10:59:39;2.42;;;2.22;;
27495;SDS011;14929;51.336;9.416;2024-01-07T11:02:09;2.67;;;2.47;;
27495;SDS011;14929;51.336;9.416;2024-01-07T11:04:40;2.60;;;2.40;;
27495;SDS011;14929;51.336;9.416;2024-01-07T11:07:18;2.05;;;1.92;;
27495;SDS011;14929;51.336;9.416;2024-01-07T11:10:00;2.80;;;2.55;;
27495;SDS011;14929;51.336;9.416;2024-01-07T11:12:31;2.60;;;1.98;;
27495;SDS011;14929;51.336;9.416;2024-01-07T11:14:59;2.10;;;1.95;;
27495;SDS011;14929;51.336;9.416;2024-01-07T11:17:43;2.53;;;2.33;;
27495;SDS011;14929;51.336;9.416;2024-01-07T11:20:18;2.38;;;2.17;;
27495;SDS011;14929;51.336;9.416;2024-01-07T11:22:46;3.25;;;2.78;;
27495;SDS011;14929;51.336;9.416;2024-01-07T11:25:29;3.20;;;2.70;;
27495;SDS011;14929;51.336;9.416;2024-01-07T11:27:58;5.78;;;4.82;;
27495;SDS011;14929;51.336;9.416;2024-01-07T11:30:28;3.72;;;3.38;;
27495;SDS011;14929;51.336;9.416;2024-01-07T11:32:57;3.22;;;2.90;;
27495;SDS011;14929;51.336;9.416;2024-01-07T11:38:22;2.67;;;2.47;;
27495;SDS011;14929;51.336;9.416;2024-01-07T11:40:50;2.30;;;2.13;;
27495;SDS011;14929;51.336;9.416;2024-01-07T11:43:17;2.53;;;2.33;;
27495;SDS011;14929;51.336;9.416;2024-01-07T11:45:45;1.85;;;1.60;;
27495;SDS011;14929;51.336;9.416;2024-01-07T11:48:14;2.22;;;1.98;;
27495;SDS011;14929;51.336;9.416;2024-01-07T11:50:42;2.42;;;1.92;;
27495;SDS011;14929;51.336;9.416;2024-01-07T11:53:11;3.28;;;2.10;;
27495;SDS011;14929;51.336;9.416;2024-01-07T11:55:38;1.60;;;1.50;;
27495;SDS011;14929;51.336;9.416;2024-01-07T11:58:06;1.85;;;1.60;;
27495;SDS011;14929;51.336;9.416;2024-01-07T12:00:33;1.30;;;1.20;;
27495;SDS011;14929;51.336;9.416;2024-01-07T12:03:01;1.40;;;1.30;;
27495;SDS011;14929;51.336;9.416;2024-01-07T12:05:31;1.98;;;1.88;;
27495;SDS011;14929;51.336;9.416;2024-01-07T12:08:00;1.50;;;1.40;;
27495;SDS011;14929;51.336;9.416;2024-01-07T12:10:28;1.60;;;1.50;;
27495;SDS011;14929;51.336;9.416;2024-01-07T12:12:55;1.55;;;1.42;;
27495;SDS011;14929;51.336;9.416;2024-01-07T12:15:23;1.40;;;1.30;;
27495;SDS011;14929;51.336;9.416;2024-01-07T12:17:57;1.92;;;1.77;;
27495;SDS011;14929;51.336;9.416;2024-01-07T12:20:26;2.05;;;1.60;;
27495;SDS011;14929;51.336;9.416;2024-01-07T12:23:04;1.98;;;1.77;;
27495;SDS011;14929;51.336;9.416;2024-01-07T12:25:33;2.05;;;1.92;;
27495;SDS011;14929;51.336;9.416;2024-01-07T12:28:00;2.38;;;1.63;;
27495;SDS011;14929;51.336;9.416;2024-01-07T12:30:28;2.00;;;1.90;;
27495;SDS011;14929;51.336;9.416;2024-01-07T12:32:56;2.15;;;1.95;;
27495;SDS011;14929;51.336;9.416;2024-01-07T12:35:25;1.50;;;1.40;;
27495;SDS011;14929;51.336;9.416;2024-01-07T12:37:52;1.85;;;1.75;;
27495;SDS011;14929;51.336;9.416;2024-01-07T12:40:22;2.00;;;1.85;;
27495;SDS011;14929;51.336;9.416;2024-01-07T12:42:52;1.92;;;1.73;;
27495;SDS011;14929;51.336;9.416;2024-01-07T12:45:19;1.63;;;1.50;;
27495;SDS011;14929;51.336;9.416;2024-01-07T12:47:47;1.70;;;1.60;;
27495;SDS011;14929;51.336;9.416;2024-01-07T12:50:14;1.63;;;1.40;;
27495;SDS011;14929;51.336;9.416;2024-01-07T12:52:42;1.67;;;1.58;;
27495;SDS011;14929;51.336;9.416;2024-01-07T12:55:10;1.88;;;1.77;;
27495;SDS011;14929;51.336;9.416;2024-01-07T12:57:40;2.33;;;1.92;;
27495;SDS011;14929;51.336;9.416;2024-01-07T13:00:08;2.53;;;1.73;;
27495;SDS011;14929;51.336;9.416;2024-01-07T13:02:36;1.50;;;1.40;;
27495;SDS011;14929;51.336;9.416;2024-01-07T13:05:05;2.25;;;1.70;;
27495;SDS011;14929;51.336;9.416;2024-01-07T13:07:33;1.70;;;1.60;;
27495;SDS011;14929;51.336;9.416;2024-01-07T13:10:01;1.73;;;1.63;;
27495;SDS011;14929;51.336;9.416;2024-01-07T13:12:28;1.58;;;1.48;;
27495;SDS011;14929;51.336;9.416;2024-01-07T13:14:57;1.75;;;1.65;;
27495;SDS011;14929;51.336;9.416;2024-01-07T13:17:25;1.38;;;1.27;;
27495;SDS011;14929;51.336;9.416;2024-01-07T13:19:55;1.77;;;1.52;;
27495;SDS011;14929;51.336;9.416;2024-01-07T13:22:22;2.40;;;1.80;;
27495;SDS011;14929;51.336;9.416;2024-01-07T13:24:50;2.70;;;2.17;;
27495;SDS011;14929;51.336;9.416;2024-01-07T13:27:19;3.30;;;1.83;;
27495;SDS011;14929;51.336;9.416;2024-01-07T13:29:48;2.72;;;2.20;;
27495;SDS011;14929;51.336;9.416;2024-01-07T13:32:17;1.92;;;1.70;;
27495;SDS011;14929;51.336;9.416;2024-01-07T13:34:44;2.10;;;2.00;;
27495;SDS011;14929;51.336;9.416;2024-01-07T13:37:13;2.17;;;1.98;;
27495;SDS011;14929;51.336;9.416;2024-01-07T13:39:40;1.88;;;1.77;;
27495;SDS011;14929;51.336;9.416;2024-01-07T13:42:07;2.28;;;2.00;;
27495;SDS011;14929;51.336;9.416;2024-01-07T13:44:35;2.40;;;2.20;;
27495;SDS011;14929;51.336;9.416;2024-01-07T13:47:11;2.85;;;1.70;;
27495;SDS011;14929;51.336;9.416;2024-01-07T13:49:41;1.98;;;1.88;;
27495;SDS011;14929;51.336;9.416;2024-01-07T13:52:10;4.00;;;2.58;;
27495;SDS011;14929;51.336;9.416;2024-01-07T13:54:37;1.90;;;1.52;;
27495;SDS011;14929;51.336;9.416;2024-01-07T13:57:05;2.17;;;1.67;;
27495;SDS011;14929;51.336;9.416;2024-01-07T13:59:33;1.92;;;1.80;;
27495;SDS011;14929;51.336;9.416;2024-01-07T14:02:00;2.28;;;1.95;;
27495;SDS011;14929;51.336;9.416;2024-01-07T14:04:30;2.78;;;2.30;;
27495;SDS011;14929;51.336;9.416;2024-01-07T14:06:58;1.30;;;1.20;;
27495;SDS011;14929;51.336;9.416;2024-01-07T14:09:26;1.65;;;1.55;;
27495;SDS011;14929;51.336;9.416;2024-01-07T14:11:56;1.70;;;1.60;;
27495;SDS011;14929;51.336;9.416;2024-01-07T14:14:23;1.48;;;1.40;;
27495;SDS011;14929;51.336;9.416;2024-01-07T14:16:51;1.60;;;1.50;;
27495;SDS011;14929;51.336;9.416;2024-01-07T14:19:19;2.47;;;1.85;;
27495;SDS011;14929;51.336;9.416;2024-01-07T14:21:47;3.88;;;2.03;;
27495;SDS011;14929;51.336;9.416;2024-01-07T14:24:15;4.05;;;2.65;;
27495;SDS011;14929;51.336;9.416;2024-01-07T14:26:43;2.03;;;1.83;;
27495;SDS011;14929;51.336;9.416;2024-01-07T14:29:10;2.58;;;2.33;;
27495;SDS011;14929;51.336;9.416;2024-01-07T14:31:38;2.10;;;1.52;;
27495;SDS011;14929;51.336;9.416;2024-01-07T14:34:06;2.03;;;1.70;;
27495;SDS011;14929;51.336;9.416;2024-01-07T14:36:34;1.60;;;1.50;;
27495;SDS011;14929;51.336;9.416;2024-01-07T14:39:05;1.40;;;1.30;;
27495;SDS011;14929;51.336;9.416;2024-01-07T14:41:35;2.17;;;1.98;;
27495;SDS011;14929;51.336;9.416;2024-01-07T14:44:02;2.03;;;1.83;;
27495;SDS011;14929;51.336;9.416;2024-01-07T14:46:30;2.92;;;2.63;;
27495;SDS011;14929;51.336;9.416;2024-01-07T14:48:57;5.50;;;4.13;;
27495;SDS011;14929;51.336;9.416;2024-01-07T14:51:25;7.47;;;4.25;;
27495;SDS011;14929;51.336;9.416;2024-01-07T14:53:53;3.13;;;2.80;;